Time;durP1;ratioP1;P1;durP2;ratioP2;P2;SDS_P1;SDS_P2;PMS_P1;PMS_P2;Temp;Humidity;BMP_temperature;BMP_pressure;BME280_temperature;BME280_humidity;BME280_pressure;Samples;Min_cycle;Max_cycle;Signal;HPM_P1;HPM_P2
2022/07/13 00:02:24;;;;;;;;;;;25.00;48.40;;;;;;5070064;28;20023;-54
2022/07/13 00:04:50;;;;;;;;;;;24.90;48.30;;;;;;5070205;28;19915;-52
2022/07/13 00:07:15;;;;;;;;;;;24.90;48.20;;;;;;5069327;28;19917;-51
2022/07/13 00:09:41;;;;;;;;;;;24.90;48.50;;;;;;5071004;28;19908;-55
2022/07/13 00:12:07;;;;;;;;;;;24.90;48.00;;;;;;5070431;28;20006;-53
2022/07/13 00:14:33;;;;;;;;;;;24.80;49.00;;;;;;5070220;28;20317;-52
2022/07/13 00:16:59;;;;;;;;;;;24.80;48.40;;;;;;5070947;28;19962;-54
2022/07/13 00:19:24;;;;;;;;;;;24.70;48.10;;;;;;5066293;28;19912;-55
2022/07/13 00:21:50;;;;;;;;;;;24.70;48.30;;;;;;5063552;28;19966;-52
2022/07/13 00:24:15;;;;;;;;;;;24.70;49.10;;;;;;5070981;28;20381;-55
2022/07/13 00:26:41;;;;;;;;;;;24.60;49.30;;;;;;5070475;28;19917;-54
2022/07/13 00:29:07;;;;;;;;;;;24.60;48.60;;;;;;5073844;28;19921;-52
2022/07/13 00:31:32;;;;;;;;;;;24.60;49.80;;;;;;5074170;28;19912;-54
2022/07/13 00:33:58;;;;;;;;;;;24.60;49.30;;;;;;5074381;28;20448;-54
2022/07/13 00:36:24;;;;;;;;;;;24.50;49.70;;;;;;5074606;28;19934;-54
2022/07/13 00:38:49;;;;;;;;;;;24.50;49.90;;;;;;5074338;28;19967;-53
2022/07/13 00:41:15;;;;;;;;;;;24.40;50.20;;;;;;5056135;28;20369;-50
2022/07/13 00:43:40;;;;;;;;;;;24.40;50.20;;;;;;5074177;28;19913;-54
2022/07/13 00:46:06;;;;;;;;;;;24.40;49.10;;;;;;5052553;28;19912;-52
2022/07/13 00:48:32;;;;;;;;;;;24.30;49.80;;;;;;5073382;28;19924;-53
2022/07/13 00:50:59;;;;;;;;;;;24.30;49.20;;;;;;5071964;28;19919;-54
2022/07/13 00:53:24;;;;;;;;;;;24.30;48.40;;;;;;5074305;28;19909;-54
2022/07/13 00:55:50;;;;;;;;;;;24.30;49.70;;;;;;5068423;28;20004;-53
2022/07/13 00:58:16;;;;;;;;;;;24.20;49.40;;;;;;5074191;28;19909;-54
2022/07/13 01:00:41;;;;;;;;;;;24.20;49.40;;;;;;5067152;28;19908;-54
2022/07/13 01:03:07;;;;;;;;;;;24.20;49.20;;;;;;5073492;28;19913;-53
2022/07/13 01:05:32;;;;;;;;;;;24.10;50.10;;;;;;5067760;28;20031;-53
2022/07/13 01:07:58;;;;;;;;;;;24.10;49.20;;;;;;5073149;28;20018;-52
2022/07/13 01:10:24;;;;;;;;;;;24.10;48.50;;;;;;5072627;28;19951;-53
2022/07/13 01:12:50;;;;;;;;;;;24.10;48.90;;;;;;5073650;28;19936;-53
2022/07/13 01:15:15;;;;;;;;;;;24.10;49.30;;;;;;5055514;28;20405;-53
2022/07/13 01:17:41;;;;;;;;;;;24.10;49.80;;;;;;5073242;28;19912;-55
2022/07/13 01:20:07;;;;;;;;;;;24.00;49.90;;;;;;5073072;28;19955;-54
2022/07/13 01:22:35;;;;;;;;;;;24.00;49.30;;;;;;5073560;28;19908;-54
2022/07/13 01:25:01;;;;;;;;;;;24.00;49.90;;;;;;5073528;28;19912;-51
2022/07/13 01:27:26;;;;;;;;;;;23.90;49.20;;;;;;5073372;28;19924;-53
2022/07/13 01:29:52;;;;;;;;;;;23.90;48.70;;;;;;5070890;28;19908;-55
2022/07/13 01:32:18;;;;;;;;;;;23.90;49.30;;;;;;5071073;28;19963;-54
2022/07/13 01:34:43;;;;;;;;;;;23.90;49.30;;;;;;5068800;28;19909;-52
2022/07/13 01:37:09;;;;;;;;;;;23.90;49.60;;;;;;5073272;28;20022;-51
2022/07/13 01:39:35;;;;;;;;;;;23.80;49.60;;;;;;5071161;28;20331;-54
2022/07/13 01:42:00;;;;;;;;;;;23.80;49.70;;;;;;5067467;28;19913;-54
2022/07/13 01:44:26;;;;;;;;;;;23.80;49.70;;;;;;5073313;28;19919;-54
2022/07/13 01:46:52;;;;;;;;;;;23.80;49.70;;;;;;5072287;28;20440;-51
2022/07/13 01:49:17;;;;;;;;;;;23.80;49.80;;;;;;5072277;28;19921;-52
2022/07/13 01:51:43;;;;;;;;;;;23.80;50.10;;;;;;5073055;28;19966;-55
2022/07/13 01:54:08;;;;;;;;;;;23.80;50.20;;;;;;5072718;28;19917;-53
2022/07/13 01:56:34;;;;;;;;;;;23.80;50.60;;;;;;5073331;28;20203;-55
2022/07/13 01:58:59;;;;;;;;;;;23.80;49.30;;;;;;5066557;28;19908;-54
2022/07/13 02:01:25;;;;;;;;;;;23.70;50.00;;;;;;5072598;28;19920;-54
2022/07/13 02:03:50;;;;;;;;;;;23.70;49.80;;;;;;5072735;28;20274;-51
2022/07/13 02:06:16;;;;;;;;;;;23.70;49.50;;;;;;5072902;28;20012;-52
2022/07/13 02:08:41;;;;;;;;;;;23.70;49.10;;;;;;5072098;28;19919;-55
2022/07/13 02:11:07;;;;;;;;;;;23.70;49.20;;;;;;5072248;28;20277;-54
2022/07/13 02:13:32;;;;;;;;;;;23.70;50.10;;;;;;5072361;28;19914;-53
2022/07/13 02:15:58;;;;;;;;;;;23.70;49.30;;;;;;5053770;28;19908;-55
2022/07/13 02:18:24;;;;;;;;;;;23.70;49.60;;;;;;5072277;28;19916;-52
2022/07/13 02:20:49;;;;;;;;;;;23.70;49.50;;;;;;5065339;28;19909;-54
2022/07/13 02:23:15;;;;;;;;;;;23.70;50.00;;;;;;5072378;28;19999;-54
2022/07/13 02:25:40;;;;;;;;;;;23.70;50.10;;;;;;5072333;28;20338;-54
2022/07/13 02:28:06;;;;;;;;;;;23.70;50.80;;;;;;5071565;28;19970;-52
2022/07/13 02:30:32;;;;;;;;;;;23.70;52.60;;;;;;5071464;28;19959;-55
2022/07/13 02:32:57;;;;;;;;;;;23.70;51.70;;;;;;5072532;28;20011;-53
2022/07/13 02:35:23;;;;;;;;;;;23.70;51.90;;;;;;5071854;28;20363;-54
2022/07/13 02:37:48;;;;;;;;;;;23.70;51.40;;;;;;5071905;28;19915;-54
2022/07/13 02:40:14;;;;;;;;;;;23.70;53.30;;;;;;5071969;28;19938;-53
2022/07/13 02:42:39;;;;;;;;;;;23.70;53.10;;;;;;5047277;28;19935;-53
2022/07/13 02:45:05;;;;;;;;;;;23.70;51.90;;;;;;5070949;28;19916;-52
2022/07/13 02:47:31;;;;;;;;;;;23.60;52.70;;;;;;5071660;28;19921;-54
2022/07/13 02:49:56;;;;;;;;;;;23.60;51.80;;;;;;5071496;28;19927;-55
2022/07/13 02:52:22;;;;;;;;;;;23.60;53.20;;;;;;5071732;28;19913;-54
2022/07/13 02:54:47;;;;;;;;;;;23.70;53.70;;;;;;5070213;28;19920;-52
2022/07/13 02:57:13;;;;;;;;;;;23.60;53.40;;;;;;5069343;28;19918;-53
2022/07/13 02:59:39;;;;;;;;;;;23.60;53.50;;;;;;5067655;28;19913;-52
2022/07/13 03:02:05;;;;;;;;;;;23.60;54.60;;;;;;5068359;28;19909;-52
2022/07/13 03:04:31;;;;;;;;;;;23.60;54.10;;;;;;5070952;28;19912;-53
2022/07/13 03:06:57;;;;;;;;;;;23.60;54.00;;;;;;5070944;28;19923;-52
2022/07/13 03:09:22;;;;;;;;;;;23.60;54.60;;;;;;5071676;28;20291;-55
2022/07/13 03:11:48;;;;;;;;;;;23.60;54.30;;;;;;5071032;28;20373;-55
2022/07/13 03:14:14;;;;;;;;;;;23.60;53.10;;;;;;5070895;28;19909;-54
2022/07/13 03:16:39;;;;;;;;;;;23.50;53.10;;;;;;5071822;28;19943;-54
2022/07/13 03:19:05;;;;;;;;;;;23.50;53.10;;;;;;5071421;28;19954;-53
2022/07/13 03:21:30;;;;;;;;;;;23.50;53.70;;;;;;5071431;28;20412;-54
2022/07/13 03:23:56;;;;;;;;;;;23.50;53.10;;;;;;5071002;28;19909;-51
2022/07/13 03:26:21;;;;;;;;;;;23.40;53.90;;;;;;5070941;28;19913;-55
2022/07/13 03:28:47;;;;;;;;;;;23.40;52.70;;;;;;5071085;28;19958;-55
2022/07/13 03:31:13;;;;;;;;;;;23.40;52.60;;;;;;5070967;28;19917;-53
2022/07/13 03:33:38;;;;;;;;;;;23.40;53.20;;;;;;5070808;28;19912;-51
2022/07/13 03:36:04;;;;;;;;;;;23.40;52.70;;;;;;5070983;28;19908;-54
2022/07/13 03:38:29;;;;;;;;;;;23.40;53.60;;;;;;5070615;28;20352;-54
2022/07/13 03:40:55;;;;;;;;;;;23.30;53.60;;;;;;5071055;28;19908;-54
2022/07/13 03:43:20;;;;;;;;;;;23.30;54.10;;;;;;5070328;28;20493;-54
2022/07/13 03:45:46;;;;;;;;;;;23.30;53.70;;;;;;5070980;28;19909;-53
2022/07/13 03:48:13;;;;;;;;;;;23.30;54.30;;;;;;5070605;28;20012;-54
2022/07/13 03:50:39;;;;;;;;;;;23.30;53.70;;;;;;5071180;28;19955;-53
2022/07/13 03:53:04;;;;;;;;;;;23.30;54.20;;;;;;5070486;28;20349;-52
2022/07/13 03:55:30;;;;;;;;;;;23.30;54.70;;;;;;5070867;28;20007;-53
2022/07/13 03:57:56;;;;;;;;;;;23.30;54.10;;;;;;5070236;28;19954;-55
2022/07/13 04:00:21;;;;;;;;;;;23.30;54.80;;;;;;5070758;28;20018;-55
2022/07/13 04:02:47;;;;;;;;;;;23.30;54.50;;;;;;5070186;28;19909;-53
2022/07/13 04:05:12;;;;;;;;;;;23.30;54.80;;;;;;5049061;28;19915;-54
2022/07/13 04:07:38;;;;;;;;;;;23.30;55.00;;;;;;5070935;28;19964;-50
2022/07/13 04:10:04;;;;;;;;;;;23.20;55.00;;;;;;5070458;28;19920;-54
2022/07/13 04:12:29;;;;;;;;;;;23.20;55.30;;;;;;5070323;28;19909;-54
2022/07/13 04:14:55;;;;;;;;;;;23.20;54.60;;;;;;5070581;28;20296;-53
2022/07/13 04:17:20;;;;;;;;;;;23.20;55.70;;;;;;5070545;28;19909;-52
2022/07/13 04:19:46;;;;;;;;;;;23.20;55.00;;;;;;5070575;28;19959;-54
2022/07/13 04:22:11;;;;;;;;;;;23.20;54.70;;;;;;5070098;28;19940;-55
2022/07/13 04:24:37;;;;;;;;;;;23.20;55.30;;;;;;5070393;28;19908;-51
2022/07/13 04:27:03;;;;;;;;;;;23.20;55.00;;;;;;5070322;28;19928;-54
2022/07/13 04:29:29;;;;;;;;;;;23.20;55.00;;;;;;5070195;28;20688;-53
2022/07/13 04:31:54;;;;;;;;;;;23.20;55.00;;;;;;5070416;28;19943;-55
2022/07/13 04:34:20;;;;;;;;;;;23.20;55.00;;;;;;5070614;28;19927;-54
2022/07/13 04:36:45;;;;;;;;;;;23.20;54.70;;;;;;5070274;28;19912;-50
2022/07/13 04:39:12;;;;;;;;;;;23.20;55.50;;;;;;5070046;28;19908;-53
2022/07/13 04:41:37;;;;;;;;;;;23.20;55.50;;;;;;5070729;28;19999;-54
2022/07/13 04:44:03;;;;;;;;;;;23.20;55.80;;;;;;5069974;28;19920;-55
2022/07/13 04:46:28;;;;;;;;;;;23.20;55.70;;;;;;5070627;28;20365;-51
2022/07/13 04:48:54;;;;;;;;;;;23.20;55.80;;;;;;5070206;28;19946;-53
2022/07/13 04:51:19;;;;;;;;;;;23.30;56.90;;;;;;5070155;28;19908;-51
2022/07/13 04:53:45;;;;;;;;;;;23.30;56.40;;;;;;5070082;28;19964;-51
2022/07/13 04:56:11;;;;;;;;;;;23.30;55.70;;;;;;5070465;28;20266;-54
2022/07/13 04:58:37;;;;;;;;;;;23.30;56.30;;;;;;5070063;28;20377;-54
2022/07/13 05:01:06;;;;;;;;;;;23.40;55.40;;;;;;5070097;28;19909;-53
2022/07/13 05:03:34;;;;;;;;;;;23.40;56.30;;;;;;5070124;28;19920;-54
2022/07/13 05:06:00;;;;;;;;;;;23.40;57.60;;;;;;5067143;28;20049;-53
2022/07/13 05:08:25;;;;;;;;;;;23.40;57.00;;;;;;5069719;28;20003;-55
2022/07/13 05:10:51;;;;;;;;;;;23.40;56.10;;;;;;5069836;28;19908;-53
2022/07/13 05:13:16;;;;;;;;;;;23.50;56.40;;;;;;5070176;28;19919;-50
2022/07/13 05:15:42;;;;;;;;;;;23.50;56.70;;;;;;5041671;28;19909;-54
2022/07/13 05:18:08;;;;;;;;;;;23.50;55.90;;;;;;5073753;28;20050;-53
2022/07/13 05:20:33;;;;;;;;;;;23.50;56.30;;;;;;5073751;28;19912;-52
2022/07/13 05:22:59;;;;;;;;;;;23.50;55.90;;;;;;5073901;28;20368;-51
2022/07/13 05:25:24;;;;;;;;;;;23.60;56.30;;;;;;5073081;28;19909;-53
2022/07/13 05:27:50;;;;;;;;;;;23.60;56.20;;;;;;5073310;28;20304;-49
2022/07/13 05:30:15;;;;;;;;;;;23.60;55.90;;;;;;5073079;28;20266;-53
2022/07/13 05:32:41;;;;;;;;;;;23.60;56.30;;;;;;5073224;28;19951;-54
2022/07/13 05:35:06;;;;;;;;;;;23.70;55.80;;;;;;5073447;28;20369;-53
2022/07/13 05:37:32;;;;;;;;;;;23.70;56.30;;;;;;5072703;28;20385;-53
2022/07/13 05:39:57;;;;;;;;;;;23.70;57.50;;;;;;5073109;28;19908;-53
2022/07/13 05:42:23;;;;;;;;;;;23.70;55.90;;;;;;5072770;28;19909;-54
2022/07/13 05:44:48;;;;;;;;;;;23.80;55.90;;;;;;5071032;28;19915;-55
2022/07/13 05:47:14;;;;;;;;;;;23.80;55.80;;;;;;5069923;28;19963;-52
2022/07/13 05:49:39;;;;;;;;;;;23.80;56.70;;;;;;5072016;28;19925;-54
2022/07/13 05:52:05;;;;;;;;;;;23.90;57.20;;;;;;5068420;28;19935;-52
2022/07/13 05:54:31;;;;;;;;;;;23.90;57.30;;;;;;5055082;28;20007;-55
2022/07/13 05:56:56;;;;;;;;;;;23.90;56.80;;;;;;5072718;28;19914;-53
2022/07/13 05:59:22;;;;;;;;;;;24.00;57.30;;;;;;5037555;28;19998;-54
2022/07/13 06:01:47;;;;;;;;;;;24.00;57.10;;;;;;5072242;28;19909;-54
2022/07/13 06:04:13;;;;;;;;;;;24.10;56.30;;;;;;5072614;28;19971;-54
2022/07/13 06:06:38;;;;;;;;;;;24.10;56.80;;;;;;5072559;28;20381;-54
2022/07/13 06:09:04;;;;;;;;;;;24.10;57.10;;;;;;5072472;28;19908;-53
2022/07/13 06:11:30;;;;;;;;;;;24.20;56.50;;;;;;5065612;28;20384;-54
2022/07/13 06:13:55;;;;;;;;;;;24.20;57.10;;;;;;5072681;28;20362;-55
2022/07/13 06:16:20;;;;;;;;;;;24.30;56.60;;;;;;5065372;28;19912;-54
2022/07/13 06:18:46;;;;;;;;;;;24.30;56.90;;;;;;5071848;28;19916;-53
2022/07/13 06:21:11;;;;;;;;;;;24.40;56.60;;;;;;5071424;28;19951;-52
2022/07/13 06:23:37;;;;;;;;;;;24.40;56.40;;;;;;5072455;28;19909;-50
2022/07/13 06:26:03;;;;;;;;;;;24.50;56.30;;;;;;5071764;28;20425;-52
2022/07/13 06:28:28;;;;;;;;;;;24.50;56.30;;;;;;5072032;28;19924;-54
2022/07/13 06:30:54;;;;;;;;;;;24.60;56.30;;;;;;5074701;28;19935;-52
2022/07/13 06:33:20;;;;;;;;;;;24.60;56.70;;;;;;5071235;28;20316;-54
2022/07/13 06:35:45;;;;;;;;;;;24.60;56.20;;;;;;5071535;28;20321;-58
2022/07/13 06:38:11;;;;;;;;;;;24.70;56.30;;;;;;5071539;28;19915;-57
2022/07/13 06:40:37;;;;;;;;;;;24.80;56.40;;;;;;5071833;28;19908;-57
2022/07/13 06:43:02;;;;;;;;;;;24.80;56.50;;;;;;5071726;28;19944;-57
2022/07/13 06:45:29;;;;;;;;;;;24.90;56.40;;;;;;5071533;28;20454;-58
2022/07/13 06:47:55;;;;;;;;;;;24.90;57.20;;;;;;5071500;28;20339;-56
2022/07/13 06:50:20;;;;;;;;;;;24.90;56.90;;;;;;5075627;28;20404;-54
2022/07/13 06:52:46;;;;;;;;;;;25.00;56.70;;;;;;5073976;28;19912;-57
2022/07/13 06:55:11;;;;;;;;;;;25.00;57.00;;;;;;5053206;28;20003;-57
2022/07/13 06:57:37;;;;;;;;;;;25.10;56.80;;;;;;5071476;28;19956;-56
2022/07/13 07:00:03;;;;;;;;;;;25.10;56.60;;;;;;5071360;28;19913;-57
2022/07/13 07:02:29;;;;;;;;;;;25.20;56.80;;;;;;5071417;28;19982;-56
2022/07/13 07:04:55;;;;;;;;;;;25.30;56.50;;;;;;5071358;28;20385;-57
2022/07/13 07:07:21;;;;;;;;;;;25.30;56.40;;;;;;5079211;28;19952;-55
2022/07/13 07:09:46;;;;;;;;;;;25.40;57.00;;;;;;5079305;28;19986;-53
2022/07/13 07:12:12;;;;;;;;;;;25.50;56.80;;;;;;5073350;28;20388;-57
2022/07/13 07:14:38;;;;;;;;;;;25.60;56.70;;;;;;5067067;28;19971;-57
2022/07/13 07:17:03;;;;;;;;;;;25.80;56.80;;;;;;5075329;28;19919;-56
2022/07/13 07:19:29;;;;;;;;;;;25.90;56.60;;;;;;5071202;28;20333;-56
2022/07/13 07:21:54;;;;;;;;;;;26.00;56.70;;;;;;5070493;28;19908;-54
2022/07/13 07:24:20;;;;;;;;;;;26.10;56.50;;;;;;5070758;28;19909;-54
2022/07/13 07:26:47;;;;;;;;;;;26.20;56.40;;;;;;5076830;28;19917;-50
2022/07/13 07:29:13;;;;;;;;;;;26.30;56.00;;;;;;5073780;28;19913;-54
2022/07/13 07:31:38;;;;;;;;;;;26.40;56.00;;;;;;5070885;28;19919;-52
2022/07/13 07:34:04;;;;;;;;;;;26.50;55.70;;;;;;5070982;28;19916;-54
2022/07/13 07:36:29;;;;;;;;;;;26.50;55.40;;;;;;5069936;28;19916;-54
2022/07/13 07:38:55;;;;;;;;;;;26.60;55.40;;;;;;5070273;28;19913;-53
2022/07/13 07:41:20;;;;;;;;;;;26.70;55.00;;;;;;5070686;28;19916;-53
2022/07/13 07:43:46;;;;;;;;;;;26.70;55.10;;;;;;5070602;28;20403;-54
2022/07/13 07:46:12;;;;;;;;;;;26.70;54.70;;;;;;5070567;28;19967;-54
2022/07/13 07:48:37;;;;;;;;;;;26.80;54.60;;;;;;5070149;28;20031;-52
2022/07/13 07:51:04;;;;;;;;;;;26.90;54.70;;;;;;5071066;28;20361;-53
2022/07/13 07:53:29;;;;;;;;;;;27.00;54.90;;;;;;5070421;28;19947;-54
2022/07/13 07:55:55;;;;;;;;;;;27.00;54.60;;;;;;5070670;28;19997;-54
2022/07/13 07:58:20;;;;;;;;;;;27.10;54.30;;;;;;5070660;28;19909;-53
2022/07/13 08:00:46;;;;;;;;;;;27.20;54.30;;;;;;5070872;28;19966;-53
2022/07/13 08:03:11;;;;;;;;;;;27.20;54.00;;;;;;5069992;28;19912;-52
2022/07/13 08:05:37;;;;;;;;;;;27.30;54.00;;;;;;5070300;28;19991;-54
2022/07/13 08:08:04;;;;;;;;;;;27.30;54.70;;;;;;5070697;28;19917;-53
2022/07/13 08:10:30;;;;;;;;;;;27.40;54.50;;;;;;5070729;28;20328;-51
2022/07/13 08:12:57;;;;;;;;;;;27.40;53.80;;;;;;5070682;28;19939;-54
2022/07/13 08:15:22;;;;;;;;;;;27.40;53.80;;;;;;5063955;28;20270;-53
2022/07/13 08:17:48;;;;;;;;;;;27.40;53.80;;;;;;5070177;28;20495;-49
2022/07/13 08:20:13;;;;;;;;;;;27.40;53.80;;;;;;5070401;28;19909;-55
2022/07/13 08:22:39;;;;;;;;;;;27.40;53.80;;;;;;5071179;28;19912;-54
2022/07/13 08:25:04;;;;;;;;;;;27.40;53.80;;;;;;5070449;28;19915;-53
2022/07/13 08:27:30;;;;;;;;;;;27.40;54.00;;;;;;5070482;28;20808;-53
2022/07/13 08:29:56;;;;;;;;;;;27.50;54.10;;;;;;5070648;28;20293;-51
2022/07/13 08:32:21;;;;;;;;;;;27.60;54.20;;;;;;5070624;28;20381;-52
2022/07/13 08:40:18;;;;;;;;;;;27.60;53.70;;;;;;5070615;28;19915;-54
2022/07/13 08:42:43;;;;;;;;;;;27.60;53.60;;;;;;5070253;28;20003;-53
2022/07/13 08:45:09;;;;;;;;;;;27.60;53.40;;;;;;5070629;28;20023;-53
2022/07/13 08:47:34;;;;;;;;;;;27.60;53.30;;;;;;5069537;28;20359;-54
2022/07/13 08:50:05;;;;;;;;;;;27.60;53.10;;;;;;5073352;28;19932;-54
2022/07/13 08:52:31;;;;;;;;;;;27.60;52.90;;;;;;5074203;28;19913;-54
2022/07/13 08:54:58;;;;;;;;;;;27.60;52.60;;;;;;5067859;28;19965;-53
2022/07/13 08:57:24;;;;;;;;;;;27.60;52.70;;;;;;5074100;28;19912;-54
2022/07/13 08:59:50;;;;;;;;;;;27.60;52.70;;;;;;5073879;28;19908;-54
2022/07/13 09:02:16;;;;;;;;;;;27.60;52.30;;;;;;5073720;28;19978;-54
2022/07/13 09:04:42;;;;;;;;;;;27.60;52.50;;;;;;5073757;28;19939;-52
2022/07/13 09:07:11;;;;;;;;;;;27.70;52.70;;;;;;5073735;28;19916;-54
2022/07/13 09:09:36;;;;;;;;;;;27.70;52.50;;;;;;5074046;28;19919;-54
2022/07/13 09:12:09;;;;;;;;;;;27.80;52.20;;;;;;5073673;28;19913;-53
2022/07/13 09:14:35;;;;;;;;;;;27.90;51.90;;;;;;5073104;28;19916;-49
2022/07/13 09:17:01;;;;;;;;;;;28.00;51.40;;;;;;5073408;28;20289;-54
2022/07/13 09:19:33;;;;;;;;;;;28.00;51.60;;;;;;5073921;28;19915;-52
2022/07/13 09:22:12;;;;;;;;;;;28.10;51.40;;;;;;5073934;28;19954;-54
2022/07/13 09:24:48;;;;;;;;;;;28.10;49.60;;;;;;5073139;28;20310;-53
2022/07/13 09:27:14;;;;;;;;;;;28.20;50.30;;;;;;5073841;28;20385;-54
2022/07/13 09:29:40;;;;;;;;;;;28.30;50.20;;;;;;5054890;28;19909;-54
2022/07/13 09:32:07;;;;;;;;;;;28.40;50.50;;;;;;5073291;28;20309;-53
2022/07/13 09:34:51;;;;;;;;;;;28.40;49.30;;;;;;5066610;28;19917;-53
2022/07/13 09:37:18;;;;;;;;;;;28.40;49.30;;;;;;5069087;28;19912;-52
2022/07/13 09:39:55;;;;;;;;;;;28.40;48.40;;;;;;5073377;28;19920;-55
2022/07/13 09:42:27;;;;;;;;;;;28.40;48.20;;;;;;5073382;28;19915;-53
2022/07/13 09:47:41;;;;;;;;;;;28.50;47.90;;;;;;5073089;28;19961;-53
2022/07/13 09:50:07;;;;;;;;;;;28.50;47.50;;;;;;5072926;28;19923;-54
2022/07/13 09:52:32;;;;;;;;;;;28.50;47.80;;;;;;5073031;28;20289;-53
2022/07/13 09:54:58;;;;;;;;;;;28.60;47.80;;;;;;5073146;28;19916;-55
2022/07/13 09:57:24;;;;;;;;;;;28.60;47.80;;;;;;5073081;28;19978;-55
2022/07/13 09:59:50;;;;;;;;;;;28.70;47.30;;;;;;5071475;28;20364;-53
2022/07/13 10:02:16;;;;;;;;;;;28.80;46.90;;;;;;5072945;28;20262;-54
2022/07/13 10:04:42;;;;;;;;;;;28.80;46.20;;;;;;5072175;28;20285;-50
2022/07/13 10:07:08;;;;;;;;;;;28.90;46.00;;;;;;5072580;28;19920;-55
2022/07/13 10:09:37;;;;;;;;;;;28.90;46.80;;;;;;5072176;28;20024;-53
2022/07/13 10:12:07;;;;;;;;;;;29.00;47.10;;;;;;5066093;28;19915;-53
2022/07/13 10:14:33;;;;;;;;;;;29.10;46.70;;;;;;5067286;28;20387;-53
2022/07/13 10:17:06;;;;;;;;;;;29.20;46.80;;;;;;5070008;28;19999;-54
2022/07/13 10:19:32;;;;;;;;;;;29.30;47.80;;;;;;5072799;28;19916;-54
2022/07/13 10:22:03;;;;;;;;;;;29.30;46.90;;;;;;5072245;28;19999;-54
2022/07/13 10:24:28;;;;;;;;;;;29.50;46.50;;;;;;5072501;28;19908;-54
2022/07/13 10:27:14;;;;;;;;;;;29.40;46.50;;;;;;5071622;28;19946;-54
2022/07/13 10:29:50;;;;;;;;;;;29.50;45.70;;;;;;5066080;28;19908;-53
2022/07/13 10:32:16;;;;;;;;;;;29.60;46.60;;;;;;5072246;28;20421;-53
2022/07/13 10:34:52;;;;;;;;;;;29.60;46.80;;;;;;5067530;28;19920;-53
2022/07/13 10:37:18;;;;;;;;;;;29.70;46.90;;;;;;5072061;28;20003;-54
2022/07/13 10:40:03;;;;;;;;;;;29.80;47.10;;;;;;5072253;28;19991;-55
2022/07/13 10:42:49;;;;;;;;;;;29.80;47.00;;;;;;5071624;28;20039;-54
2022/07/13 10:47:58;;;;;;;;;;;29.90;46.00;;;;;;5067752;28;19970;-49
2022/07/13 10:50:26;;;;;;;;;;;29.90;46.70;;;;;;5072101;28;19912;-54
2022/07/13 10:52:52;;;;;;;;;;;30.00;46.80;;;;;;5065065;28;19912;-55
2022/07/13 10:55:20;;;;;;;;;;;30.00;46.50;;;;;;5071976;28;19999;-54
2022/07/13 10:57:46;;;;;;;;;;;30.10;46.70;;;;;;5071383;28;19915;-55
2022/07/13 11:00:19;;;;;;;;;;;30.10;46.70;;;;;;5071501;28;20319;-54
2022/07/13 11:02:47;;;;;;;;;;;30.20;46.50;;;;;;5071384;28;19954;-52
2022/07/13 11:05:13;;;;;;;;;;;30.20;46.60;;;;;;5071410;28;19908;-51
2022/07/13 11:07:43;;;;;;;;;;;30.20;46.40;;;;;;5071929;28;19916;-54
2022/07/13 11:10:22;;;;;;;;;;;30.30;46.40;;;;;;5067682;28;19977;-54
2022/07/13 11:12:58;;;;;;;;;;;30.30;46.10;;;;;;5070861;28;20436;-49
2022/07/13 11:15:24;;;;;;;;;;;30.30;46.10;;;;;;5071087;28;19908;-54
2022/07/13 11:17:54;;;;;;;;;;;30.30;46.60;;;;;;5071522;28;19909;-50
2022/07/13 11:20:19;;;;;;;;;;;30.30;45.90;;;;;;5070964;28;20003;-53
2022/07/13 11:25:50;;;;;;;;;;;30.40;46.20;;;;;;5066319;28;19932;-54
2022/07/13 11:28:24;;;;;;;;;;;30.50;46.20;;;;;;5071154;28;19997;-53
2022/07/13 11:30:52;;;;;;;;;;;30.50;46.50;;;;;;5071184;28;19954;-52
2022/07/13 11:33:19;;;;;;;;;;;30.60;45.50;;;;;;5071102;28;19927;-55
2022/07/13 11:35:46;;;;;;;;;;;30.60;46.00;;;;;;5071202;28;20373;-52
2022/07/13 11:38:13;;;;;;;;;;;30.70;45.50;;;;;;5070814;28;19982;-54
2022/07/13 11:40:39;;;;;;;;;;;30.80;45.60;;;;;;5070270;28;20396;-54
2022/07/13 11:43:04;;;;;;;;;;;30.70;45.50;;;;;;5070756;28;19914;-54
2022/07/13 11:45:31;;;;;;;;;;;30.80;45.60;;;;;;5072099;28;19920;-52
2022/07/13 11:47:58;;;;;;;;;;;30.90;45.50;;;;;;5070729;28;19920;-51
2022/07/13 11:50:37;;;;;;;;;;;31.00;45.50;;;;;;5070555;28;19909;-55
2022/07/13 11:53:02;;;;;;;;;;;31.00;45.80;;;;;;5070195;28;20305;-52
2022/07/13 11:55:29;;;;;;;;;;;31.10;45.50;;;;;;5069753;28;19923;-54
2022/07/13 11:57:58;;;;;;;;;;;31.10;45.40;;;;;;5061067;28;20013;-54
2022/07/13 12:00:23;;;;;;;;;;;31.10;45.60;;;;;;5067269;28;19916;-53
2022/07/13 12:02:52;;;;;;;;;;;31.10;45.70;;;;;;5067286;28;19923;-54
2022/07/13 12:05:25;;;;;;;;;;;31.10;45.40;;;;;;5068467;28;19963;-50
2022/07/13 12:08:01;;;;;;;;;;;31.10;45.00;;;;;;5066292;28;20404;-54
2022/07/13 12:10:26;;;;;;;;;;;31.20;45.30;;;;;;5065254;28;19920;-54
2022/07/13 12:12:52;;;;;;;;;;;31.20;45.00;;;;;;5065218;28;21593;-54
2022/07/13 12:15:19;;;;;;;;;;;31.20;45.10;;;;;;5065482;28;20010;-55
2022/07/13 12:17:48;;;;;;;;;;;31.20;44.90;;;;;;5068288;28;19913;-55
2022/07/13 12:20:18;;;;;;;;;;;31.20;45.20;;;;;;5066566;28;19951;-52
2022/07/13 12:22:54;;;;;;;;;;;31.20;45.20;;;;;;5067365;28;20289;-50
2022/07/13 12:25:26;;;;;;;;;;;31.30;45.00;;;;;;5070589;28;19964;-53
2022/07/13 12:27:52;;;;;;;;;;;31.30;45.20;;;;;;5070929;28;19921;-53
2022/07/13 12:30:18;;;;;;;;;;;31.30;45.00;;;;;;5072199;28;19920;-52
2022/07/13 12:33:01;;;;;;;;;;;31.30;45.00;;;;;;5073908;28;19920;-53
2022/07/13 12:35:28;;;;;;;;;;;31.30;45.00;;;;;;5071166;28;19992;-54
2022/07/13 12:37:54;;;;;;;;;;;31.30;45.20;;;;;;5071390;28;19921;-53
2022/07/13 12:40:38;;;;;;;;;;;31.50;45.60;;;;;;5077811;28;20379;-50
2022/07/13 12:43:04;;;;;;;;;;;31.70;45.00;;;;;;5071137;28;19913;-54
2022/07/13 12:45:30;;;;;;;;;;;31.70;44.80;;;;;;5067964;28;19912;-54
2022/07/13 12:47:56;;;;;;;;;;;31.80;44.30;;;;;;5066271;28;19921;-53
2022/07/13 12:50:25;;;;;;;;;;;31.80;43.60;;;;;;5071794;28;19923;-54
2022/07/13 12:53:00;;;;;;;;;;;31.80;44.00;;;;;;5070459;28;20576;-48
2022/07/13 12:55:26;;;;;;;;;;;31.80;44.30;;;;;;5071343;28;19920;-52
2022/07/13 12:57:52;;;;;;;;;;;31.80;44.40;;;;;;5071323;28;19974;-53
2022/07/13 13:00:25;;;;;;;;;;;31.90;44.50;;;;;;5071906;28;20400;-49
2022/07/13 13:02:50;;;;;;;;;;;31.90;44.00;;;;;;5071095;28;19913;-51
2022/07/13 13:05:16;;;;;;;;;;;32.00;43.40;;;;;;5071444;28;19923;-52
2022/07/13 13:07:42;;;;;;;;;;;32.00;43.70;;;;;;5071077;28;19928;-52
2022/07/13 13:10:08;;;;;;;;;;;32.00;43.60;;;;;;5071101;28;19919;-53
2022/07/13 13:12:34;;;;;;;;;;;32.00;42.80;;;;;;5071161;28;19920;-54
2022/07/13 13:15:00;;;;;;;;;;;32.00;43.10;;;;;;5071197;28;19912;-54
2022/07/13 13:17:26;;;;;;;;;;;32.00;43.20;;;;;;5069783;28;19920;-55
2022/07/13 13:19:51;;;;;;;;;;;32.00;43.50;;;;;;5071430;28;19913;-56
2022/07/13 13:22:17;;;;;;;;;;;32.00;43.40;;;;;;5070953;28;20293;-49
2022/07/13 13:24:43;;;;;;;;;;;32.10;43.20;;;;;;5070859;28;19912;-53
2022/07/13 13:27:08;;;;;;;;;;;32.20;43.50;;;;;;5071533;28;19927;-51
2022/07/13 13:32:18;;;;;;;;;;;32.30;43.50;;;;;;5070053;28;19919;-50
2022/07/13 13:34:45;;;;;;;;;;;32.20;43.30;;;;;;5065614;28;19916;-53
2022/07/13 13:37:11;;;;;;;;;;;32.20;43.30;;;;;;5070508;28;20003;-55
2022/07/13 13:39:36;;;;;;;;;;;32.20;42.70;;;;;;5070718;28;19919;-50
2022/07/13 13:42:02;;;;;;;;;;;32.20;43.00;;;;;;5070643;28;19913;-54
2022/07/13 13:44:27;;;;;;;;;;;32.30;43.20;;;;;;5071325;28;19966;-53
2022/07/13 13:46:53;;;;;;;;;;;32.30;43.20;;;;;;5071067;28;19921;-54
2022/07/13 13:49:18;;;;;;;;;;;32.30;43.10;;;;;;5070440;28;20581;-51
2022/07/13 13:51:44;;;;;;;;;;;32.30;42.90;;;;;;5069832;28;20011;-54
2022/07/13 13:54:10;;;;;;;;;;;32.30;42.60;;;;;;5070683;28;19913;-50
2022/07/13 13:56:35;;;;;;;;;;;32.30;43.00;;;;;;5070119;28;19922;-55
2022/07/13 13:59:02;;;;;;;;;;;32.30;43.10;;;;;;5070724;28;19916;-54
2022/07/13 14:01:28;;;;;;;;;;;32.30;43.30;;;;;;5067915;28;19962;-55
2022/07/13 14:03:53;;;;;;;;;;;32.40;43.50;;;;;;5069573;28;19921;-50
2022/07/13 14:06:19;;;;;;;;;;;32.50;42.90;;;;;;5071144;28;20593;-51
2022/07/13 14:08:45;;;;;;;;;;;32.50;42.80;;;;;;5064034;28;19936;-53
2022/07/13 14:11:14;;;;;;;;;;;32.60;42.90;;;;;;5070097;28;20003;-52
2022/07/13 14:13:40;;;;;;;;;;;32.60;42.70;;;;;;5068465;28;19917;-52
2022/07/13 14:16:06;;;;;;;;;;;32.60;42.70;;;;;;5077179;28;19938;-50
2022/07/13 14:18:35;;;;;;;;;;;32.60;42.60;;;;;;5069527;28;19917;-51
2022/07/13 14:21:00;;;;;;;;;;;32.60;42.80;;;;;;5069535;28;19921;-54
2022/07/13 14:23:26;;;;;;;;;;;32.60;42.80;;;;;;5069979;28;19923;-53
2022/07/13 14:25:52;;;;;;;;;;;32.60;42.60;;;;;;5050749;28;20479;-55
2022/07/13 14:28:18;;;;;;;;;;;32.60;42.40;;;;;;5070374;28;19921;-50
2022/07/13 14:30:44;;;;;;;;;;;32.70;42.40;;;;;;5069756;28;20266;-52